Aérodrome :
LOGIN :

S'inscrire | Disclaimer

   EN    FR    IT 

 










Légende :    VFR   VFR Marginal   IFR   IFR Intensif   IFR Très Intensif
Visi : 
Plafond : 
>= 8 km
>= 3000ft
5 à 8 km
1000 à 3000 ft
1500m à 5 km
500 à 1000 ft
800 à 1500m
200 à 500 ft
< 800m
< 200 ft
Symboles :   Orages  Brouillard  Fortes neiges  Fortes précipitations  Vent > 20 kt
SIGMETs :   Divers  Orages  Givrage  Turbulence  Onde Orograph.  Cendres Volcan.






- Altitude de l'aérodrome : 408 ft
- Code IATA : FKB


EDSB - Karlsruhe Baden Baden

DERNIER METAR :
  • 301950Z 22011KT 9999 FEW020 SCT040 17/14 Q1015

METARs EXPIRÉS :
  • 301920Z 23008KT 190V260 CAVOK 17/14 Q1013
  • 301850Z 25011KT 210V300 9999 FEW037 SCT046 18/15 Q1012
  • 301820Z 26009KT 200V310 9999 VCSH FEW021 SCT045 19/16 Q1012
  • 301750Z 28006KT 230V320 9999 -SHRA BKN048CB 21/17 Q1011
  • 301720Z 26014G29KT 220V300 9999 -SHRA VCTS BKN047CB 23/17 Q1010

TAF TAF EDSB
Valide du 30 à 18h jusqu'au 01 à 18h UTC


301700Z 3018/0118 25006KT 9999 FEW040
TEMPO 3018/3021 30020G40KT 1000 +TSRA BKN008 BKN030CB
PROB40
TEMPO 3021/0101 30015G25KT 4000 TSRA BKN035CB
PROB30
TEMPO 0101/0108 BKN012



MET'MAP, la Météo Aéronautique d'un coup d'oeil ! - Copyright ORBIFLY Décembre 2007 - Disclaimer

ORBIFLY MET'MAP TEAM :

Programmation & Développement : Alexandra Zaïnal
Sur une idée originale de : Baudouin d'Aumeries
Soutien technique & logistique : Manuel Goepfert
Assistance : Marc-Olivier Méhu




SOURCES & CREDITS :

   NOAA